sensor_id;sensor_type;location;lat;lon;timestamp;P1;durP1;ratioP1;P2;durP2;ratioP2
41629;SDS011;27322;49.488;8.480;2023-08-07T00:00:23;5.25;;;1.40;;
41629;SDS011;27322;49.488;8.480;2023-08-07T00:02:49;4.55;;;1.33;;
41629;SDS011;27322;49.488;8.480;2023-08-07T00:05:15;7.18;;;1.50;;
41629;SDS011;27322;49.488;8.480;2023-08-07T00:07:43;5.50;;;1.27;;
41629;SDS011;27322;49.488;8.480;2023-08-07T00:10:09;4.03;;;1.40;;
41629;SDS011;27322;49.488;8.480;2023-08-07T00:12:35;6.90;;;1.40;;
41629;SDS011;27322;49.488;8.480;2023-08-07T00:15:04;4.63;;;1.33;;
41629;SDS011;27322;49.488;8.480;2023-08-07T00:17:30;8.95;;;1.48;;
41629;SDS011;27322;49.488;8.480;2023-08-07T00:19:56;5.75;;;1.35;;
41629;SDS011;27322;49.488;8.480;2023-08-07T00:22:22;5.80;;;1.45;;
41629;SDS011;27322;49.488;8.480;2023-08-07T00:24:48;6.28;;;1.25;;
41629;SDS011;27322;49.488;8.480;2023-08-07T00:27:14;4.38;;;1.27;;
41629;SDS011;27322;49.488;8.480;2023-08-07T00:29:39;2.45;;;1.02;;
41629;SDS011;27322;49.488;8.480;2023-08-07T00:32:05;5.88;;;1.27;;
41629;SDS011;27322;49.488;8.480;2023-08-07T00:34:31;4.82;;;1.23;;
41629;SDS011;27322;49.488;8.480;2023-08-07T00:36:57;4.63;;;1.20;;
41629;SDS011;27322;49.488;8.480;2023-08-07T00:39:23;4.13;;;1.20;;
41629;SDS011;27322;49.488;8.480;2023-08-07T00:41:48;4.20;;;1.05;;
41629;SDS011;27322;49.488;8.480;2023-08-07T00:44:14;5.07;;;1.13;;
41629;SDS011;27322;49.488;8.480;2023-08-07T00:46:40;6.28;;;1.30;;
41629;SDS011;27322;49.488;8.480;2023-08-07T00:49:06;6.55;;;1.38;;
41629;SDS011;27322;49.488;8.480;2023-08-07T00:51:34;3.10;;;1.08;;
41629;SDS011;27322;49.488;8.480;2023-08-07T00:54:00;5.30;;;1.30;;
41629;SDS011;27322;49.488;8.480;2023-08-07T00:56:30;5.55;;;1.10;;
41629;SDS011;27322;49.488;8.480;2023-08-07T00:58:57;4.20;;;1.20;;
41629;SDS011;27322;49.488;8.480;2023-08-07T01:01:26;4.55;;;1.30;;
41629;SDS011;27322;49.488;8.480;2023-08-07T01:03:52;4.05;;;1.27;;
41629;SDS011;27322;49.488;8.480;2023-08-07T01:06:18;5.60;;;1.30;;
41629;SDS011;27322;49.488;8.480;2023-08-07T01:08:43;6.10;;;1.30;;
41629;SDS011;27322;49.488;8.480;2023-08-07T01:19:22;5.07;;;1.42;;
41629;SDS011;27322;49.488;8.480;2023-08-07T01:21:50;6.80;;;1.33;;
41629;SDS011;27322;49.488;8.480;2023-08-07T01:24:28;3.63;;;1.00;;
41629;SDS011;27322;49.488;8.480;2023-08-07T01:26:54;5.07;;;1.10;;
41629;SDS011;27322;49.488;8.480;2023-08-07T01:29:24;3.78;;;1.00;;
41629;SDS011;27322;49.488;8.480;2023-08-07T01:31:59;4.03;;;1.02;;
41629;SDS011;27322;49.488;8.480;2023-08-07T01:34:28;3.47;;;1.10;;
41629;SDS011;27322;49.488;8.480;2023-08-07T01:36:53;7.88;;;1.25;;
41629;SDS011;27322;49.488;8.480;2023-08-07T01:39:20;7.25;;;1.38;;
41629;SDS011;27322;49.488;8.480;2023-08-07T01:41:48;3.92;;;1.20;;
41629;SDS011;27322;49.488;8.480;2023-08-07T01:44:15;5.47;;;1.20;;
41629;SDS011;27322;49.488;8.480;2023-08-07T01:46:41;4.80;;;1.27;;
41629;SDS011;27322;49.488;8.480;2023-08-07T01:49:06;3.17;;;1.05;;
41629;SDS011;27322;49.488;8.480;2023-08-07T01:51:32;5.55;;;1.20;;
41629;SDS011;27322;49.488;8.480;2023-08-07T01:53:58;3.55;;;1.00;;
41629;SDS011;27322;49.488;8.480;2023-08-07T01:56:23;6.07;;;1.20;;
41629;SDS011;27322;49.488;8.480;2023-08-07T01:58:49;4.47;;;1.35;;
41629;SDS011;27322;49.488;8.480;2023-08-07T02:01:14;5.18;;;1.23;;
41629;SDS011;27322;49.488;8.480;2023-08-07T02:03:40;5.85;;;1.38;;
41629;SDS011;27322;49.488;8.480;2023-08-07T02:06:05;3.78;;;1.23;;
41629;SDS011;27322;49.488;8.480;2023-08-07T02:08:31;6.45;;;1.40;;
41629;SDS011;27322;49.488;8.480;2023-08-07T02:10:56;7.00;;;1.40;;
41629;SDS011;27322;49.488;8.480;2023-08-07T02:13:22;6.43;;;1.40;;
41629;SDS011;27322;49.488;8.480;2023-08-07T02:15:48;6.35;;;1.40;;
41629;SDS011;27322;49.488;8.480;2023-08-07T02:18:13;5.57;;;1.38;;
41629;SDS011;27322;49.488;8.480;2023-08-07T02:20:39;6.03;;;1.25;;
41629;SDS011;27322;49.488;8.480;2023-08-07T02:23:04;7.00;;;1.23;;
41629;SDS011;27322;49.488;8.480;2023-08-07T02:25:34;4.38;;;1.40;;
41629;SDS011;27322;49.488;8.480;2023-08-07T02:27:59;5.00;;;1.20;;
41629;SDS011;27322;49.488;8.480;2023-08-07T02:30:25;5.78;;;1.63;;
41629;SDS011;27322;49.488;8.480;2023-08-07T02:32:50;5.70;;;1.25;;
41629;SDS011;27322;49.488;8.480;2023-08-07T02:35:16;4.28;;;1.30;;
41629;SDS011;27322;49.488;8.480;2023-08-07T02:37:42;5.43;;;1.80;;
41629;SDS011;27322;49.488;8.480;2023-08-07T02:40:07;4.90;;;1.40;;
41629;SDS011;27322;49.488;8.480;2023-08-07T02:42:33;6.38;;;1.45;;
41629;SDS011;27322;49.488;8.480;2023-08-07T02:44:59;5.78;;;1.42;;
41629;SDS011;27322;49.488;8.480;2023-08-07T02:47:24;4.63;;;1.20;;
41629;SDS011;27322;49.488;8.480;2023-08-07T02:49:50;5.78;;;1.15;;
41629;SDS011;27322;49.488;8.480;2023-08-07T02:52:15;6.22;;;1.50;;
41629;SDS011;27322;49.488;8.480;2023-08-07T02:54:41;6.10;;;1.25;;
41629;SDS011;27322;49.488;8.480;2023-08-07T02:57:07;6.47;;;1.50;;
41629;SDS011;27322;49.488;8.480;2023-08-07T02:59:32;5.10;;;1.42;;
41629;SDS011;27322;49.488;8.480;2023-08-07T03:01:58;6.05;;;1.33;;
41629;SDS011;27322;49.488;8.480;2023-08-07T03:04:23;6.43;;;1.40;;
41629;SDS011;27322;49.488;8.480;2023-08-07T03:06:49;6.15;;;1.33;;
41629;SDS011;27322;49.488;8.480;2023-08-07T03:09:14;5.95;;;1.20;;
41629;SDS011;27322;49.488;8.480;2023-08-07T03:11:40;4.20;;;1.15;;
41629;SDS011;27322;49.488;8.480;2023-08-07T03:14:06;4.75;;;1.40;;
41629;SDS011;27322;49.488;8.480;2023-08-07T03:16:32;5.18;;;1.30;;
41629;SDS011;27322;49.488;8.480;2023-08-07T03:18:57;5.38;;;1.40;;
41629;SDS011;27322;49.488;8.480;2023-08-07T03:21:23;6.38;;;1.48;;
41629;SDS011;27322;49.488;8.480;2023-08-07T03:23:48;3.95;;;1.20;;
41629;SDS011;27322;49.488;8.480;2023-08-07T03:26:14;3.80;;;1.30;;
41629;SDS011;27322;49.488;8.480;2023-08-07T03:28:39;5.63;;;1.58;;
41629;SDS011;27322;49.488;8.480;2023-08-07T03:31:05;7.25;;;1.35;;
41629;SDS011;27322;49.488;8.480;2023-08-07T03:33:31;4.97;;;1.48;;
41629;SDS011;27322;49.488;8.480;2023-08-07T03:35:56;5.53;;;1.30;;
41629;SDS011;27322;49.488;8.480;2023-08-07T03:38:23;6.82;;;1.50;;
41629;SDS011;27322;49.488;8.480;2023-08-07T03:40:49;7.50;;;1.27;;
41629;SDS011;27322;49.488;8.480;2023-08-07T03:43:14;6.30;;;1.63;;
41629;SDS011;27322;49.488;8.480;2023-08-07T03:45:40;6.18;;;1.48;;
41629;SDS011;27322;49.488;8.480;2023-08-07T03:48:06;7.60;;;1.35;;
41629;SDS011;27322;49.488;8.480;2023-08-07T03:50:31;5.35;;;1.50;;
41629;SDS011;27322;49.488;8.480;2023-08-07T03:53:00;6.85;;;1.55;;
41629;SDS011;27322;49.488;8.480;2023-08-07T03:55:26;7.03;;;1.60;;
41629;SDS011;27322;49.488;8.480;2023-08-07T03:57:51;8.52;;;1.88;;
41629;SDS011;27322;49.488;8.480;2023-08-07T04:00:17;5.35;;;1.33;;
41629;SDS011;27322;49.488;8.480;2023-08-07T04:02:43;5.50;;;1.45;;
41629;SDS011;27322;49.488;8.480;2023-08-07T04:05:09;4.85;;;1.30;;
41629;SDS011;27322;49.488;8.480;2023-08-07T04:07:35;5.05;;;1.30;;
41629;SDS011;27322;49.488;8.480;2023-08-07T04:10:01;6.03;;;1.58;;
41629;SDS011;27322;49.488;8.480;2023-08-07T04:12:27;7.32;;;1.77;;
41629;SDS011;27322;49.488;8.480;2023-08-07T04:14:52;6.85;;;1.45;;
41629;SDS011;27322;49.488;8.480;2023-08-07T04:17:18;6.65;;;1.58;;
41629;SDS011;27322;49.488;8.480;2023-08-07T04:19:44;6.97;;;2.00;;
41629;SDS011;27322;49.488;8.480;2023-08-07T04:22:09;7.03;;;1.70;;
41629;SDS011;27322;49.488;8.480;2023-08-07T04:24:35;8.35;;;1.70;;
41629;SDS011;27322;49.488;8.480;2023-08-07T04:27:00;4.68;;;1.58;;
41629;SDS011;27322;49.488;8.480;2023-08-07T04:29:26;7.88;;;1.90;;
41629;SDS011;27322;49.488;8.480;2023-08-07T04:31:51;6.00;;;1.48;;
41629;SDS011;27322;49.488;8.480;2023-08-07T04:34:17;6.05;;;1.60;;
41629;SDS011;27322;49.488;8.480;2023-08-07T04:36:42;6.32;;;1.60;;
41629;SDS011;27322;49.488;8.480;2023-08-07T04:39:08;7.30;;;1.73;;
41629;SDS011;27322;49.488;8.480;2023-08-07T04:41:34;5.63;;;1.42;;
41629;SDS011;27322;49.488;8.480;2023-08-07T04:43:59;2.33;;;1.30;;
41629;SDS011;27322;49.488;8.480;2023-08-07T04:46:25;5.20;;;1.60;;
41629;SDS011;27322;49.488;8.480;2023-08-07T04:48:50;4.15;;;1.35;;
41629;SDS011;27322;49.488;8.480;2023-08-07T04:51:16;6.55;;;1.60;;
41629;SDS011;27322;49.488;8.480;2023-08-07T04:53:42;4.28;;;1.60;;
41629;SDS011;27322;49.488;8.480;2023-08-07T04:56:07;8.48;;;1.77;;
41629;SDS011;27322;49.488;8.480;2023-08-07T04:58:33;5.60;;;1.77;;
41629;SDS011;27322;49.488;8.480;2023-08-07T05:00:59;6.13;;;1.50;;
41629;SDS011;27322;49.488;8.480;2023-08-07T05:03:25;7.07;;;1.80;;
41629;SDS011;27322;49.488;8.480;2023-08-07T05:05:57;6.07;;;1.65;;
41629;SDS011;27322;49.488;8.480;2023-08-07T05:08:24;5.10;;;1.33;;
41629;SDS011;27322;49.488;8.480;2023-08-07T05:10:50;6.47;;;1.60;;
41629;SDS011;27322;49.488;8.480;2023-08-07T05:13:16;5.28;;;1.60;;
41629;SDS011;27322;49.488;8.480;2023-08-07T05:15:41;4.60;;;1.60;;
41629;SDS011;27322;49.488;8.480;2023-08-07T05:18:07;6.40;;;1.80;;
41629;SDS011;27322;49.488;8.480;2023-08-07T05:20:32;6.47;;;1.50;;
41629;SDS011;27322;49.488;8.480;2023-08-07T05:22:58;6.20;;;1.50;;
41629;SDS011;27322;49.488;8.480;2023-08-07T05:25:24;4.88;;;1.80;;
41629;SDS011;27322;49.488;8.480;2023-08-07T05:27:49;9.23;;;1.92;;
41629;SDS011;27322;49.488;8.480;2023-08-07T05:30:15;4.68;;;1.38;;
41629;SDS011;27322;49.488;8.480;2023-08-07T05:32:40;7.03;;;1.83;;
41629;SDS011;27322;49.488;8.480;2023-08-07T05:35:06;6.53;;;1.80;;
41629;SDS011;27322;49.488;8.480;2023-08-07T05:37:33;5.30;;;1.80;;
41629;SDS011;27322;49.488;8.480;2023-08-07T05:39:59;5.50;;;1.73;;
41629;SDS011;27322;49.488;8.480;2023-08-07T05:42:25;7.82;;;1.48;;
41629;SDS011;27322;49.488;8.480;2023-08-07T05:44:51;3.40;;;1.45;;
41629;SDS011;27322;49.488;8.480;2023-08-07T05:47:16;5.28;;;1.70;;
41629;SDS011;27322;49.488;8.480;2023-08-07T05:49:42;5.60;;;1.65;;
41629;SDS011;27322;49.488;8.480;2023-08-07T05:52:07;7.30;;;1.90;;
41629;SDS011;27322;49.488;8.480;2023-08-07T05:54:33;6.85;;;1.50;;
41629;SDS011;27322;49.488;8.480;2023-08-07T05:56:59;5.00;;;1.58;;
41629;SDS011;27322;49.488;8.480;2023-08-07T05:59:25;5.07;;;1.40;;
41629;SDS011;27322;49.488;8.480;2023-08-07T06:01:51;4.90;;;1.60;;
41629;SDS011;27322;49.488;8.480;2023-08-07T06:04:17;7.05;;;1.70;;
41629;SDS011;27322;49.488;8.480;2023-08-07T06:06:43;9.38;;;2.03;;
41629;SDS011;27322;49.488;8.480;2023-08-07T06:09:08;8.23;;;1.98;;
41629;SDS011;27322;49.488;8.480;2023-08-07T06:11:34;5.82;;;1.67;;
41629;SDS011;27322;49.488;8.480;2023-08-07T06:14:00;5.15;;;1.58;;
41629;SDS011;27322;49.488;8.480;2023-08-07T06:16:26;5.20;;;1.60;;
41629;SDS011;27322;49.488;8.480;2023-08-07T06:18:52;4.78;;;1.40;;
41629;SDS011;27322;49.488;8.480;2023-08-07T06:21:18;5.75;;;1.73;;
41629;SDS011;27322;49.488;8.480;2023-08-07T06:23:45;5.38;;;1.60;;
41629;SDS011;27322;49.488;8.480;2023-08-07T06:26:10;4.43;;;1.33;;
41629;SDS011;27322;49.488;8.480;2023-08-07T06:28:36;6.53;;;1.70;;
41629;SDS011;27322;49.488;8.480;2023-08-07T06:31:09;6.32;;;2.00;;
41629;SDS011;27322;49.488;8.480;2023-08-07T06:33:35;6.22;;;1.40;;
41629;SDS011;27322;49.488;8.480;2023-08-07T06:36:02;5.43;;;1.50;;
41629;SDS011;27322;49.488;8.480;2023-08-07T06:38:28;4.95;;;1.50;;
41629;SDS011;27322;49.488;8.480;2023-08-07T06:40:54;4.18;;;1.40;;
41629;SDS011;27322;49.488;8.480;2023-08-07T06:43:20;4.15;;;1.38;;
41629;SDS011;27322;49.488;8.480;2023-08-07T06:45:46;4.53;;;1.55;;
41629;SDS011;27322;49.488;8.480;2023-08-07T06:48:14;5.57;;;1.40;;
41629;SDS011;27322;49.488;8.480;2023-08-07T06:50:39;5.18;;;1.73;;
41629;SDS011;27322;49.488;8.480;2023-08-07T06:53:05;5.38;;;1.67;;
41629;SDS011;27322;49.488;8.480;2023-08-07T06:55:31;8.93;;;1.88;;
41629;SDS011;27322;49.488;8.480;2023-08-07T06:57:58;6.00;;;1.48;;
41629;SDS011;27322;49.488;8.480;2023-08-07T07:00:23;6.32;;;1.55;;
41629;SDS011;27322;49.488;8.480;2023-08-07T07:02:49;6.45;;;1.58;;
41629;SDS011;27322;49.488;8.480;2023-08-07T07:05:15;8.23;;;1.75;;
41629;SDS011;27322;49.488;8.480;2023-08-07T07:07:40;7.57;;;1.40;;
41629;SDS011;27322;49.488;8.480;2023-08-07T07:10:07;5.00;;;1.73;;
41629;SDS011;27322;49.488;8.480;2023-08-07T07:12:33;7.38;;;1.60;;
41629;SDS011;27322;49.488;8.480;2023-08-07T07:14:58;6.18;;;1.42;;
41629;SDS011;27322;49.488;8.480;2023-08-07T07:17:24;6.28;;;1.67;;
41629;SDS011;27322;49.488;8.480;2023-08-07T07:19:49;5.47;;;1.70;;
41629;SDS011;27322;49.488;8.480;2023-08-07T07:22:15;5.60;;;1.70;;
41629;SDS011;27322;49.488;8.480;2023-08-07T07:24:41;4.38;;;1.52;;
41629;SDS011;27322;49.488;8.480;2023-08-07T07:27:06;5.85;;;1.40;;
41629;SDS011;27322;49.488;8.480;2023-08-07T07:29:32;3.45;;;1.52;;
41629;SDS011;27322;49.488;8.480;2023-08-07T07:31:57;4.88;;;1.40;;
41629;SDS011;27322;49.488;8.480;2023-08-07T07:34:24;6.32;;;1.70;;
41629;SDS011;27322;49.488;8.480;2023-08-07T07:36:49;6.43;;;1.90;;
41629;SDS011;27322;49.488;8.480;2023-08-07T07:39:16;6.88;;;1.60;;
41629;SDS011;27322;49.488;8.480;2023-08-07T07:41:42;6.10;;;1.48;;
41629;SDS011;27322;49.488;8.480;2023-08-07T07:44:07;4.68;;;1.40;;
41629;SDS011;27322;49.488;8.480;2023-08-07T07:46:33;6.35;;;1.83;;
41629;SDS011;27322;49.488;8.480;2023-08-07T07:48:59;9.20;;;1.55;;
41629;SDS011;27322;49.488;8.480;2023-08-07T07:51:24;7.00;;;1.55;;
41629;SDS011;27322;49.488;8.480;2023-08-07T07:53:50;6.60;;;1.60;;
41629;SDS011;27322;49.488;8.480;2023-08-07T07:56:16;10.07;;;2.22;;
41629;SDS011;27322;49.488;8.480;2023-08-07T07:58:41;4.93;;;1.50;;
41629;SDS011;27322;49.488;8.480;2023-08-07T08:01:07;6.50;;;1.70;;
41629;SDS011;27322;49.488;8.480;2023-08-07T08:03:33;7.68;;;1.50;;
41629;SDS011;27322;49.488;8.480;2023-08-07T08:05:59;6.18;;;1.90;;
41629;SDS011;27322;49.488;8.480;2023-08-07T08:08:26;5.40;;;1.70;;
41629;SDS011;27322;49.488;8.480;2023-08-07T08:10:51;4.00;;;1.45;;
41629;SDS011;27322;49.488;8.480;2023-08-07T08:13:17;6.35;;;1.40;;
41629;SDS011;27322;49.488;8.480;2023-08-07T08:15:43;5.65;;;1.73;;
41629;SDS011;27322;49.488;8.480;2023-08-07T08:18:10;7.25;;;1.80;;
41629;SDS011;27322;49.488;8.480;2023-08-07T08:20:36;5.07;;;1.60;;
41629;SDS011;27322;49.488;8.480;2023-08-07T08:23:02;6.65;;;1.80;;
41629;SDS011;27322;49.488;8.480;2023-08-07T08:25:28;6.10;;;1.55;;
41629;SDS011;27322;49.488;8.480;2023-08-07T08:27:53;5.95;;;1.70;;
41629;SDS011;27322;49.488;8.480;2023-08-07T08:30:19;6.93;;;1.60;;
41629;SDS011;27322;49.488;8.480;2023-08-07T08:32:45;5.10;;;1.80;;
41629;SDS011;27322;49.488;8.480;2023-08-07T08:35:11;8.38;;;1.88;;
41629;SDS011;27322;49.488;8.480;2023-08-07T08:37:36;5.80;;;1.60;;
41629;SDS011;27322;49.488;8.480;2023-08-07T08:40:02;6.18;;;1.58;;
41629;SDS011;27322;49.488;8.480;2023-08-07T08:42:28;4.03;;;1.50;;
41629;SDS011;27322;49.488;8.480;2023-08-07T08:44:55;7.05;;;1.60;;
41629;SDS011;27322;49.488;8.480;2023-08-07T08:47:21;7.03;;;1.83;;
41629;SDS011;27322;49.488;8.480;2023-08-07T08:49:54;5.75;;;1.90;;
41629;SDS011;27322;49.488;8.480;2023-08-07T08:52:30;4.78;;;1.60;;
41629;SDS011;27322;49.488;8.480;2023-08-07T08:54:57;5.30;;;1.60;;
41629;SDS011;27322;49.488;8.480;2023-08-07T08:57:24;5.60;;;1.83;;
41629;SDS011;27322;49.488;8.480;2023-08-07T08:59:51;5.80;;;1.83;;
41629;SDS011;27322;49.488;8.480;2023-08-07T09:02:16;6.25;;;2.10;;
41629;SDS011;27322;49.488;8.480;2023-08-07T09:04:43;10.75;;;2.25;;
41629;SDS011;27322;49.488;8.480;2023-08-07T09:07:09;6.88;;;2.00;;
41629;SDS011;27322;49.488;8.480;2023-08-07T09:09:38;4.30;;;1.65;;
41629;SDS011;27322;49.488;8.480;2023-08-07T09:12:05;5.85;;;1.90;;
41629;SDS011;27322;49.488;8.480;2023-08-07T09:14:33;7.35;;;1.90;;
41629;SDS011;27322;49.488;8.480;2023-08-07T09:17:02;7.25;;;2.10;;
41629;SDS011;27322;49.488;8.480;2023-08-07T09:19:29;9.02;;;2.15;;
41629;SDS011;27322;49.488;8.480;2023-08-07T09:21:55;7.63;;;1.98;;
41629;SDS011;27322;49.488;8.480;2023-08-07T09:24:20;8.05;;;2.00;;
41629;SDS011;27322;49.488;8.480;2023-08-07T09:26:47;7.65;;;2.05;;
41629;SDS011;27322;49.488;8.480;2023-08-07T09:29:15;6.20;;;1.88;;
41629;SDS011;27322;49.488;8.480;2023-08-07T09:31:43;4.47;;;1.88;;
41629;SDS011;27322;49.488;8.480;2023-08-07T09:34:10;5.70;;;1.75;;
41629;SDS011;27322;49.488;8.480;2023-08-07T09:36:37;8.85;;;1.98;;
41629;SDS011;27322;49.488;8.480;2023-08-07T09:39:03;6.43;;;1.95;;
41629;SDS011;27322;49.488;8.480;2023-08-07T09:41:32;5.15;;;1.85;;
41629;SDS011;27322;49.488;8.480;2023-08-07T09:43:59;8.57;;;1.85;;
41629;SDS011;27322;49.488;8.480;2023-08-07T09:46:42;5.78;;;2.17;;
41629;SDS011;27322;49.488;8.480;2023-08-07T09:49:08;9.27;;;1.75;;
41629;SDS011;27322;49.488;8.480;2023-08-07T09:51:44;7.07;;;1.80;;
41629;SDS011;27322;49.488;8.480;2023-08-07T09:54:10;7.47;;;2.40;;
41629;SDS011;27322;49.488;8.480;2023-08-07T09:56:36;6.72;;;2.35;;
41629;SDS011;27322;49.488;8.480;2023-08-07T09:59:05;7.25;;;2.33;;
41629;SDS011;27322;49.488;8.480;2023-08-07T10:01:32;6.53;;;2.13;;
41629;SDS011;27322;49.488;8.480;2023-08-07T10:04:01;6.32;;;2.28;;
41629;SDS011;27322;49.488;8.480;2023-08-07T10:06:27;7.57;;;2.30;;
41629;SDS011;27322;49.488;8.480;2023-08-07T10:08:53;9.40;;;2.22;;
41629;SDS011;27322;49.488;8.480;2023-08-07T10:11:19;5.82;;;2.03;;
41629;SDS011;27322;49.488;8.480;2023-08-07T10:13:46;6.03;;;2.50;;
41629;SDS011;27322;49.488;8.480;2023-08-07T10:16:12;6.07;;;2.38;;
41629;SDS011;27322;49.488;8.480;2023-08-07T10:18:39;8.73;;;2.13;;
41629;SDS011;27322;49.488;8.480;2023-08-07T10:21:05;5.63;;;2.20;;
41629;SDS011;27322;49.488;8.480;2023-08-07T10:23:33;5.90;;;2.47;;
41629;SDS011;27322;49.488;8.480;2023-08-07T10:26:01;8.63;;;2.47;;
41629;SDS011;27322;49.488;8.480;2023-08-07T10:28:29;6.43;;;2.33;;
41629;SDS011;27322;49.488;8.480;2023-08-07T10:30:57;8.65;;;2.80;;
41629;SDS011;27322;49.488;8.480;2023-08-07T10:33:24;8.45;;;2.75;;
41629;SDS011;27322;49.488;8.480;2023-08-07T10:35:51;4.75;;;2.28;;
41629;SDS011;27322;49.488;8.480;2023-08-07T10:38:22;5.03;;;2.35;;
41629;SDS011;27322;49.488;8.480;2023-08-07T10:43:36;8.00;;;2.92;;
41629;SDS011;27322;49.488;8.480;2023-08-07T10:46:07;7.22;;;3.00;;
41629;SDS011;27322;49.488;8.480;2023-08-07T10:48:44;7.13;;;2.85;;
41629;SDS011;27322;49.488;8.480;2023-08-07T10:51:13;5.22;;;2.42;;
41629;SDS011;27322;49.488;8.480;2023-08-07T10:53:49;6.68;;;2.80;;
41629;SDS011;27322;49.488;8.480;2023-08-07T10:56:18;8.70;;;3.17;;
41629;SDS011;27322;49.488;8.480;2023-08-07T10:58:55;6.53;;;2.53;;
41629;SDS011;27322;49.488;8.480;2023-08-07T11:01:39;9.45;;;2.67;;
41629;SDS011;27322;49.488;8.480;2023-08-07T11:04:09;5.60;;;2.80;;
41629;SDS011;27322;49.488;8.480;2023-08-07T11:06:36;7.95;;;3.03;;
41629;SDS011;27322;49.488;8.480;2023-08-07T11:09:04;7.93;;;2.58;;
41629;SDS011;27322;49.488;8.480;2023-08-07T11:11:37;7.63;;;3.03;;
41629;SDS011;27322;49.488;8.480;2023-08-07T11:14:16;8.27;;;3.05;;
41629;SDS011;27322;49.488;8.480;2023-08-07T11:16:44;7.22;;;3.30;;
41629;SDS011;27322;49.488;8.480;2023-08-07T11:19:11;8.50;;;2.97;;
41629;SDS011;27322;49.488;8.480;2023-08-07T11:21:41;8.43;;;3.50;;
41629;SDS011;27322;49.488;8.480;2023-08-07T11:24:07;8.23;;;3.63;;
41629;SDS011;27322;49.488;8.480;2023-08-07T11:26:33;9.23;;;2.83;;
41629;SDS011;27322;49.488;8.480;2023-08-07T11:28:59;8.30;;;3.17;;
41629;SDS011;27322;49.488;8.480;2023-08-07T11:31:25;8.43;;;2.95;;
41629;SDS011;27322;49.488;8.480;2023-08-07T11:33:51;8.00;;;2.63;;
41629;SDS011;27322;49.488;8.480;2023-08-07T11:36:18;6.95;;;2.70;;
41629;SDS011;27322;49.488;8.480;2023-08-07T11:38:43;7.28;;;2.60;;
41629;SDS011;27322;49.488;8.480;2023-08-07T11:41:13;7.45;;;2.53;;
41629;SDS011;27322;49.488;8.480;2023-08-07T11:43:40;10.80;;;2.90;;
41629;SDS011;27322;49.488;8.480;2023-08-07T11:46:07;7.05;;;2.85;;
41629;SDS011;27322;49.488;8.480;2023-08-07T11:48:34;8.05;;;2.80;;
41629;SDS011;27322;49.488;8.480;2023-08-07T11:51:01;5.65;;;2.53;;
41629;SDS011;27322;49.488;8.480;2023-08-07T11:53:32;7.03;;;2.75;;
41629;SDS011;27322;49.488;8.480;2023-08-07T11:55:59;7.88;;;3.10;;
41629;SDS011;27322;49.488;8.480;2023-08-07T11:58:33;8.15;;;3.05;;
41629;SDS011;27322;49.488;8.480;2023-08-07T12:01:04;7.72;;;2.58;;
41629;SDS011;27322;49.488;8.480;2023-08-07T12:03:38;7.90;;;3.10;;
41629;SDS011;27322;49.488;8.480;2023-08-07T12:06:07;6.80;;;2.47;;
41629;SDS011;27322;49.488;8.480;2023-08-07T12:08:35;4.65;;;2.17;;
41629;SDS011;27322;49.488;8.480;2023-08-07T12:11:02;5.72;;;2.50;;
41629;SDS011;27322;49.488;8.480;2023-08-07T12:13:32;6.05;;;2.50;;
41629;SDS011;27322;49.488;8.480;2023-08-07T12:16:00;7.60;;;2.50;;
41629;SDS011;27322;49.488;8.480;2023-08-07T12:18:27;6.85;;;2.90;;
41629;SDS011;27322;49.488;8.480;2023-08-07T12:20:58;7.35;;;2.50;;
41629;SDS011;27322;49.488;8.480;2023-08-07T12:23:34;5.60;;;2.50;;
41629;SDS011;27322;49.488;8.480;2023-08-07T12:26:01;5.53;;;2.40;;
41629;SDS011;27322;49.488;8.480;2023-08-07T12:28:27;6.43;;;2.72;;
41629;SDS011;27322;49.488;8.480;2023-08-07T12:30:53;5.88;;;2.40;;
41629;SDS011;27322;49.488;8.480;2023-08-07T12:33:18;5.68;;;2.60;;
41629;SDS011;27322;49.488;8.480;2023-08-07T12:35:44;7.13;;;2.53;;
41629;SDS011;27322;49.488;8.480;2023-08-07T12:38:11;7.25;;;2.78;;
41629;SDS011;27322;49.488;8.480;2023-08-07T12:40:39;6.88;;;3.35;;
41629;SDS011;27322;49.488;8.480;2023-08-07T12:43:05;6.30;;;2.70;;
41629;SDS011;27322;49.488;8.480;2023-08-07T12:45:31;6.95;;;2.63;;
41629;SDS011;27322;49.488;8.480;2023-08-07T12:47:57;9.35;;;2.70;;
41629;SDS011;27322;49.488;8.480;2023-08-07T12:50:23;6.20;;;2.92;;
41629;SDS011;27322;49.488;8.480;2023-08-07T12:52:50;8.05;;;3.17;;
41629;SDS011;27322;49.488;8.480;2023-08-07T12:55:15;7.38;;;3.03;;
41629;SDS011;27322;49.488;8.480;2023-08-07T12:57:41;6.32;;;3.10;;
41629;SDS011;27322;49.488;8.480;2023-08-07T13:00:08;7.85;;;2.78;;
41629;SDS011;27322;49.488;8.480;2023-08-07T13:02:37;6.03;;;2.88;;
41629;SDS011;27322;49.488;8.480;2023-08-07T13:05:05;6.95;;;2.88;;
41629;SDS011;27322;49.488;8.480;2023-08-07T13:07:31;6.95;;;2.80;;
41629;SDS011;27322;49.488;8.480;2023-08-07T13:09:57;6.10;;;2.63;;
41629;SDS011;27322;49.488;8.480;2023-08-07T13:12:22;9.60;;;3.10;;
41629;SDS011;27322;49.488;8.480;2023-08-07T13:14:48;6.72;;;2.83;;
41629;SDS011;27322;49.488;8.480;2023-08-07T13:17:13;6.25;;;3.15;;
41629;SDS011;27322;49.488;8.480;2023-08-07T13:19:39;8.27;;;3.78;;
41629;SDS011;27322;49.488;8.480;2023-08-07T13:22:05;8.10;;;3.53;;
41629;SDS011;27322;49.488;8.480;2023-08-07T13:24:32;7.65;;;3.70;;
41629;SDS011;27322;49.488;8.480;2023-08-07T13:26:57;8.48;;;3.70;;
41629;SDS011;27322;49.488;8.480;2023-08-07T13:29:23;9.10;;;4.03;;
41629;SDS011;27322;49.488;8.480;2023-08-07T13:31:50;7.28;;;3.63;;
41629;SDS011;27322;49.488;8.480;2023-08-07T13:34:15;7.40;;;3.70;;
41629;SDS011;27322;49.488;8.480;2023-08-07T13:36:41;9.30;;;3.40;;
41629;SDS011;27322;49.488;8.480;2023-08-07T13:39:06;9.80;;;3.40;;
41629;SDS011;27322;49.488;8.480;2023-08-07T13:41:33;8.40;;;3.30;;
41629;SDS011;27322;49.488;8.480;2023-08-07T13:43:59;6.95;;;3.58;;
41629;SDS011;27322;49.488;8.480;2023-08-07T13:46:25;7.68;;;3.15;;
41629;SDS011;27322;49.488;8.480;2023-08-07T13:48:51;6.65;;;2.85;;
41629;SDS011;27322;49.488;8.480;2023-08-07T13:51:17;4.93;;;2.42;;
41629;SDS011;27322;49.488;8.480;2023-08-07T13:53:43;7.00;;;2.70;;
41629;SDS011;27322;49.488;8.480;2023-08-07T13:56:09;6.10;;;2.75;;
41629;SDS011;27322;49.488;8.480;2023-08-07T13:58:37;5.80;;;2.78;;
41629;SDS011;27322;49.488;8.480;2023-08-07T14:01:03;4.97;;;2.40;;
41629;SDS011;27322;49.488;8.480;2023-08-07T14:03:29;4.30;;;2.50;;
41629;SDS011;27322;49.488;8.480;2023-08-07T14:05:55;6.22;;;2.47;;
41629;SDS011;27322;49.488;8.480;2023-08-07T14:08:21;6.22;;;2.00;;
41629;SDS011;27322;49.488;8.480;2023-08-07T14:10:46;4.57;;;1.60;;
41629;SDS011;27322;49.488;8.480;2023-08-07T14:13:12;6.13;;;1.73;;
41629;SDS011;27322;49.488;8.480;2023-08-07T14:15:38;4.82;;;1.52;;
41629;SDS011;27322;49.488;8.480;2023-08-07T14:18:03;3.28;;;1.50;;
41629;SDS011;27322;49.488;8.480;2023-08-07T14:20:29;4.05;;;1.77;;
41629;SDS011;27322;49.488;8.480;2023-08-07T14:22:55;4.65;;;2.00;;
41629;SDS011;27322;49.488;8.480;2023-08-07T14:25:20;4.57;;;1.70;;
41629;SDS011;27322;49.488;8.480;2023-08-07T14:27:47;5.32;;;2.10;;
41629;SDS011;27322;49.488;8.480;2023-08-07T14:30:13;4.88;;;2.30;;
41629;SDS011;27322;49.488;8.480;2023-08-07T14:32:39;7.40;;;2.35;;
41629;SDS011;27322;49.488;8.480;2023-08-07T14:35:05;5.32;;;2.20;;
41629;SDS011;27322;49.488;8.480;2023-08-07T14:37:31;5.00;;;2.25;;
41629;SDS011;27322;49.488;8.480;2023-08-07T14:39:56;4.75;;;2.20;;
41629;SDS011;27322;49.488;8.480;2023-08-07T14:42:22;4.20;;;1.92;;
41629;SDS011;27322;49.488;8.480;2023-08-07T14:44:48;5.95;;;2.10;;
41629;SDS011;27322;49.488;8.480;2023-08-07T14:47:14;6.35;;;2.20;;
41629;SDS011;27322;49.488;8.480;2023-08-07T14:49:39;5.60;;;2.13;;
41629;SDS011;27322;49.488;8.480;2023-08-07T14:52:05;4.95;;;2.10;;
41629;SDS011;27322;49.488;8.480;2023-08-07T14:54:32;4.20;;;1.63;;